sensor_id;sensor_type;location;lat;lon;timestamp;pressure;altitude;pressure_sealevel;temperature;humidity
40872;BME280;26591;43.264;26.940;2022-07-23T00:00:05;99026.94;;;25.57;44.00
40872;BME280;26591;43.264;26.940;2022-07-23T00:02:31;99025.28;;;25.56;43.12
40872;BME280;26591;43.264;26.940;2022-07-23T00:04:56;99028.91;;;25.24;43.27
40872;BME280;26591;43.264;26.940;2022-07-23T00:07:22;99024.97;;;24.94;43.71
40872;BME280;26591;43.264;26.940;2022-07-23T00:09:47;99031.03;;;25.11;43.45
40872;BME280;26591;43.264;26.940;2022-07-23T00:12:13;99029.75;;;25.29;43.21
40872;BME280;26591;43.264;26.940;2022-07-23T00:14:38;99026.63;;;25.53;43.43
40872;BME280;26591;43.264;26.940;2022-07-23T00:17:04;99029.06;;;25.50;44.14
40872;BME280;26591;43.264;26.940;2022-07-23T00:19:29;99037.75;;;25.57;43.19
40872;BME280;26591;43.264;26.940;2022-07-23T00:21:55;99026.13;;;25.67;42.48
40872;BME280;26591;43.264;26.940;2022-07-23T00:24:21;99034.00;;;25.73;42.55
40872;BME280;26591;43.264;26.940;2022-07-23T00:26:46;99024.50;;;25.71;42.25
40872;BME280;26591;43.264;26.940;2022-07-23T00:29:12;99028.25;;;25.54;42.64
40872;BME280;26591;43.264;26.940;2022-07-23T00:31:37;99025.41;;;25.28;44.06
40872;BME280;26591;43.264;26.940;2022-07-23T00:34:03;99029.28;;;25.43;43.02
40872;BME280;26591;43.264;26.940;2022-07-23T00:36:28;99021.75;;;25.55;43.05
40872;BME280;26591;43.264;26.940;2022-07-23T00:38:56;99024.78;;;25.64;43.09
40872;BME280;26591;43.264;26.940;2022-07-23T00:41:22;99031.59;;;25.77;42.22
40872;BME280;26591;43.264;26.940;2022-07-23T00:43:47;99020.47;;;25.79;42.79
40872;BME280;26591;43.264;26.940;2022-07-23T00:46:13;99029.16;;;25.81;42.08
40872;BME280;26591;43.264;26.940;2022-07-23T00:48:38;99026.72;;;25.79;42.40
40872;BME280;26591;43.264;26.940;2022-07-23T00:51:05;99027.56;;;25.85;42.58
40872;BME280;26591;43.264;26.940;2022-07-23T00:53:30;99025.91;;;25.89;42.07
40872;BME280;26591;43.264;26.940;2022-07-23T00:55:57;99030.81;;;25.97;42.08
40872;BME280;26591;43.264;26.940;2022-07-23T00:58:24;99021.88;;;26.02;42.73
40872;BME280;26591;43.264;26.940;2022-07-23T01:00:49;99017.81;;;25.99;42.38
40872;BME280;26591;43.264;26.940;2022-07-23T01:03:15;99017.25;;;25.92;41.63
40872;BME280;26591;43.264;26.940;2022-07-23T01:05:40;99023.16;;;25.73;41.72
40872;BME280;26591;43.264;26.940;2022-07-23T01:08:06;99020.44;;;25.63;42.35
40872;BME280;26591;43.264;26.940;2022-07-23T01:10:32;99019.03;;;25.55;41.89
40872;BME280;26591;43.264;26.940;2022-07-23T01:13:15;99016.38;;;25.61;43.13
40872;BME280;26591;43.264;26.940;2022-07-23T01:15:41;99016.41;;;25.66;42.63
40872;BME280;26591;43.264;26.940;2022-07-23T01:18:07;99019.38;;;25.69;42.88
40872;BME280;26591;43.264;26.940;2022-07-23T01:20:33;99018.84;;;25.72;42.23
40872;BME280;26591;43.264;26.940;2022-07-23T01:22:59;99018.84;;;25.72;41.79
40872;BME280;26591;43.264;26.940;2022-07-23T01:25:24;99021.84;;;25.76;42.19
40872;BME280;26591;43.264;26.940;2022-07-23T01:27:52;99014.00;;;25.85;43.03
40872;BME280;26591;43.264;26.940;2022-07-23T01:30:18;99022.66;;;25.92;41.99
40872;BME280;26591;43.264;26.940;2022-07-23T01:32:44;99016.19;;;25.88;42.88
40872;BME280;26591;43.264;26.940;2022-07-23T01:35:10;99008.94;;;25.40;42.81
40872;BME280;26591;43.264;26.940;2022-07-23T01:37:36;99007.94;;;24.61;45.68
40872;BME280;26591;43.264;26.940;2022-07-23T01:40:03;99006.72;;;24.79;45.04
40872;BME280;26591;43.264;26.940;2022-07-23T01:42:29;99004.94;;;24.95;44.72
40872;BME280;26591;43.264;26.940;2022-07-23T01:44:55;99006.91;;;25.10;44.50
40872;BME280;26591;43.264;26.940;2022-07-23T01:47:21;99008.78;;;25.04;44.66
40872;BME280;26591;43.264;26.940;2022-07-23T01:49:46;99009.50;;;24.89;45.95
40872;BME280;26591;43.264;26.940;2022-07-23T01:52:12;99011.63;;;24.82;45.69
40872;BME280;26591;43.264;26.940;2022-07-23T01:54:38;99006.94;;;24.72;45.92
40872;BME280;26591;43.264;26.940;2022-07-23T01:57:05;99004.19;;;24.67;47.25
40872;BME280;26591;43.264;26.940;2022-07-23T01:59:31;99004.84;;;24.79;46.51
40872;BME280;26591;43.264;26.940;2022-07-23T02:01:57;99005.22;;;24.98;46.72
40872;BME280;26591;43.264;26.940;2022-07-23T02:04:23;99011.50;;;25.09;46.26
40872;BME280;26591;43.264;26.940;2022-07-23T02:06:49;99012.06;;;25.11;45.85
40872;BME280;26591;43.264;26.940;2022-07-23T02:09:15;99008.53;;;25.11;46.84
40872;BME280;26591;43.264;26.940;2022-07-23T02:11:41;99013.72;;;25.18;46.30
40872;BME280;26591;43.264;26.940;2022-07-23T02:14:07;99011.88;;;25.28;45.97
40872;BME280;26591;43.264;26.940;2022-07-23T02:16:32;99016.50;;;25.28;45.70
40872;BME280;26591;43.264;26.940;2022-07-23T02:18:58;99014.59;;;25.28;45.59
40872;BME280;26591;43.264;26.940;2022-07-23T02:21:23;99013.78;;;25.28;46.35
40872;BME280;26591;43.264;26.940;2022-07-23T02:23:49;99015.41;;;25.34;45.83
40872;BME280;26591;43.264;26.940;2022-07-23T02:26:14;99019.78;;;25.40;45.09
40872;BME280;26591;43.264;26.940;2022-07-23T02:28:40;99017.41;;;25.49;45.38
40872;BME280;26591;43.264;26.940;2022-07-23T02:31:05;99014.72;;;25.49;45.52
40872;BME280;26591;43.264;26.940;2022-07-23T02:33:32;99016.84;;;25.52;45.39
40872;BME280;26591;43.264;26.940;2022-07-23T02:35:58;99010.66;;;25.57;44.81
40872;BME280;26591;43.264;26.940;2022-07-23T02:38:23;99012.31;;;25.58;45.36
40872;BME280;26591;43.264;26.940;2022-07-23T02:40:49;99013.06;;;25.48;44.86
40872;BME280;26591;43.264;26.940;2022-07-23T02:43:15;99013.53;;;25.40;44.58
40872;BME280;26591;43.264;26.940;2022-07-23T02:45:40;99006.72;;;25.27;45.40
40872;BME280;26591;43.264;26.940;2022-07-23T02:48:06;99009.41;;;25.22;44.99
40872;BME280;26591;43.264;26.940;2022-07-23T02:50:31;99008.88;;;25.25;45.13
40872;BME280;26591;43.264;26.940;2022-07-23T02:52:57;99011.56;;;25.20;44.16
40872;BME280;26591;43.264;26.940;2022-07-23T02:55:22;99010.41;;;25.05;45.48
40872;BME280;26591;43.264;26.940;2022-07-23T02:57:48;99013.16;;;25.16;45.55
40872;BME280;26591;43.264;26.940;2022-07-23T03:00:13;99009.38;;;25.11;45.18
40872;BME280;26591;43.264;26.940;2022-07-23T03:02:39;99013.19;;;25.21;45.30
40872;BME280;26591;43.264;26.940;2022-07-23T03:05:05;99021.66;;;25.35;45.15
40872;BME280;26591;43.264;26.940;2022-07-23T03:07:31;99019.59;;;25.57;45.00
40872;BME280;26591;43.264;26.940;2022-07-23T03:09:56;99018.56;;;25.74;44.49
40872;BME280;26591;43.264;26.940;2022-07-23T03:12:22;99025.28;;;25.03;44.91
40872;BME280;26591;43.264;26.940;2022-07-23T03:14:47;99028.28;;;25.06;46.10
40872;BME280;26591;43.264;26.940;2022-07-23T03:17:13;99033.97;;;25.05;46.91
40872;BME280;26591;43.264;26.940;2022-07-23T03:19:38;99032.66;;;25.12;46.56
40872;BME280;26591;43.264;26.940;2022-07-23T03:22:04;99038.34;;;24.41;49.29
40872;BME280;26591;43.264;26.940;2022-07-23T03:24:30;99043.56;;;23.48;53.28
40872;BME280;26591;43.264;26.940;2022-07-23T03:27:14;99042.56;;;23.15;54.35
40872;BME280;26591;43.264;26.940;2022-07-23T03:29:40;99038.41;;;23.07;55.39
40872;BME280;26591;43.264;26.940;2022-07-23T03:32:06;99047.06;;;23.71;54.09
40872;BME280;26591;43.264;26.940;2022-07-23T03:34:31;99040.63;;;24.21;52.67
40872;BME280;26591;43.264;26.940;2022-07-23T03:36:57;99044.66;;;24.51;52.30
40872;BME280;26591;43.264;26.940;2022-07-23T03:39:22;99049.56;;;24.87;51.27
40872;BME280;26591;43.264;26.940;2022-07-23T03:41:48;99050.81;;;25.17;51.35
40872;BME280;26591;43.264;26.940;2022-07-23T03:44:13;99047.78;;;25.51;50.72
40872;BME280;26591;43.264;26.940;2022-07-23T03:46:39;99045.41;;;25.75;49.88
40872;BME280;26591;43.264;26.940;2022-07-23T03:49:05;99050.97;;;26.27;48.50
40872;BME280;26591;43.264;26.940;2022-07-23T03:51:30;99047.72;;;26.82;46.94
40872;BME280;26591;43.264;26.940;2022-07-23T03:53:55;99039.22;;;27.25;46.17
40872;BME280;26591;43.264;26.940;2022-07-23T03:56:21;99038.06;;;27.52;45.00
40872;BME280;26591;43.264;26.940;2022-07-23T03:58:47;99039.22;;;27.91;44.95
40872;BME280;26591;43.264;26.940;2022-07-23T04:01:13;99044.84;;;28.44;43.66
40872;BME280;26591;43.264;26.940;2022-07-23T04:03:38;99046.31;;;28.66;43.90
40872;BME280;26591;43.264;26.940;2022-07-23T04:06:05;99051.81;;;28.90;43.54
40872;BME280;26591;43.264;26.940;2022-07-23T04:08:31;99049.09;;;28.90;42.95
40872;BME280;26591;43.264;26.940;2022-07-23T04:10:57;99056.13;;;28.97;42.07
40872;BME280;26591;43.264;26.940;2022-07-23T04:13:22;99051.38;;;29.32;41.32
40872;BME280;26591;43.264;26.940;2022-07-23T04:15:48;99068.88;;;29.74;40.74
40872;BME280;26591;43.264;26.940;2022-07-23T04:18:15;99065.06;;;29.75;40.55
40872;BME280;26591;43.264;26.940;2022-07-23T04:20:43;99060.38;;;30.00;40.29
40872;BME280;26591;43.264;26.940;2022-07-23T04:23:08;99067.81;;;30.33;39.53
40872;BME280;26591;43.264;26.940;2022-07-23T04:25:35;99074.84;;;30.53;39.02
40872;BME280;26591;43.264;26.940;2022-07-23T04:28:00;99075.66;;;30.72;38.38
40872;BME280;26591;43.264;26.940;2022-07-23T04:30:26;99074.47;;;30.93;38.08
40872;BME280;26591;43.264;26.940;2022-07-23T04:32:51;99078.38;;;31.47;36.90
40872;BME280;26591;43.264;26.940;2022-07-23T04:35:17;99075.13;;;31.59;37.70
40872;BME280;26591;43.264;26.940;2022-07-23T04:37:43;99073.00;;;31.84;36.96
40872;BME280;26591;43.264;26.940;2022-07-23T04:40:09;99077.94;;;31.96;37.27
40872;BME280;26591;43.264;26.940;2022-07-23T04:42:34;99067.94;;;32.14;35.75
40872;BME280;26591;43.264;26.940;2022-07-23T04:45:00;99070.31;;;32.44;36.18
40872;BME280;26591;43.264;26.940;2022-07-23T04:47:25;99069.00;;;32.95;35.47
40872;BME280;26591;43.264;26.940;2022-07-23T04:49:51;99074.41;;;33.09;34.87
40872;BME280;26591;43.264;26.940;2022-07-23T04:52:16;99069.63;;;33.24;34.56
40872;BME280;26591;43.264;26.940;2022-07-23T04:54:42;99071.84;;;33.44;35.09
40872;BME280;26591;43.264;26.940;2022-07-23T04:57:07;99079.63;;;33.86;32.87
40872;BME280;26591;43.264;26.940;2022-07-23T04:59:33;99077.72;;;33.87;33.50
40872;BME280;26591;43.264;26.940;2022-07-23T05:01:59;99076.59;;;34.05;32.96
40872;BME280;26591;43.264;26.940;2022-07-23T05:04:24;99084.06;;;34.14;33.11
40872;BME280;26591;43.264;26.940;2022-07-23T05:06:50;99078.22;;;34.06;32.61
40872;BME280;26591;43.264;26.940;2022-07-23T05:09:15;99081.31;;;34.05;33.07
40872;BME280;26591;43.264;26.940;2022-07-23T05:11:41;99079.38;;;33.97;33.80
40872;BME280;26591;43.264;26.940;2022-07-23T05:14:06;99082.78;;;34.11;33.66
40872;BME280;26591;43.264;26.940;2022-07-23T05:16:32;99091.97;;;34.50;33.05
40872;BME280;26591;43.264;26.940;2022-07-23T05:18:57;99082.94;;;34.41;32.79
40872;BME280;26591;43.264;26.940;2022-07-23T05:21:23;99082.25;;;34.71;33.09
40872;BME280;26591;43.264;26.940;2022-07-23T05:23:48;99093.38;;;34.74;32.35
40872;BME280;26591;43.264;26.940;2022-07-23T05:26:14;99085.50;;;34.46;33.15
40872;BME280;26591;43.264;26.940;2022-07-23T05:28:39;99084.03;;;34.49;32.95
40872;BME280;26591;43.264;26.940;2022-07-23T05:31:05;99078.88;;;34.38;33.53
40872;BME280;26591;43.264;26.940;2022-07-23T05:33:31;99084.84;;;34.67;33.33
40872;BME280;26591;43.264;26.940;2022-07-23T05:36:01;99082.84;;;34.94;32.83
40872;BME280;26591;43.264;26.940;2022-07-23T05:38:27;99083.13;;;35.01;32.22
40872;BME280;26591;43.264;26.940;2022-07-23T05:40:53;99082.44;;;35.22;32.15
40872;BME280;26591;43.264;26.940;2022-07-23T05:43:19;99082.09;;;35.23;32.66
40872;BME280;26591;43.264;26.940;2022-07-23T05:45:44;99079.56;;;35.09;32.35
40872;BME280;26591;43.264;26.940;2022-07-23T05:48:10;99089.09;;;35.12;32.30
40872;BME280;26591;43.264;26.940;2022-07-23T05:50:35;99087.75;;;35.27;31.98
40872;BME280;26591;43.264;26.940;2022-07-23T05:53:01;99080.97;;;35.54;32.13
40872;BME280;26591;43.264;26.940;2022-07-23T05:55:26;99085.00;;;35.66;31.83
40872;BME280;26591;43.264;26.940;2022-07-23T05:57:58;99087.53;;;35.92;31.45
40872;BME280;26591;43.264;26.940;2022-07-23T06:00:24;99084.19;;;35.86;31.93
40872;BME280;26591;43.264;26.940;2022-07-23T06:02:49;99090.63;;;35.69;31.48
40872;BME280;26591;43.264;26.940;2022-07-23T06:05:15;99091.63;;;35.95;31.55
40872;BME280;26591;43.264;26.940;2022-07-23T06:07:41;99095.81;;;36.34;31.03
40872;BME280;26591;43.264;26.940;2022-07-23T06:10:07;99094.19;;;36.33;31.59
40872;BME280;26591;43.264;26.940;2022-07-23T06:12:33;99086.09;;;36.16;30.88
40872;BME280;26591;43.264;26.940;2022-07-23T06:14:59;99090.78;;;36.37;30.76
40872;BME280;26591;43.264;26.940;2022-07-23T06:17:24;99094.47;;;36.41;30.69
40872;BME280;26591;43.264;26.940;2022-07-23T06:19:50;99097.09;;;36.37;30.67
40872;BME280;26591;43.264;26.940;2022-07-23T06:22:16;99101.59;;;36.75;30.78
40872;BME280;26591;43.264;26.940;2022-07-23T06:24:41;99103.16;;;36.52;30.60
40872;BME280;26591;43.264;26.940;2022-07-23T06:27:07;99098.50;;;36.22;31.11
40872;BME280;26591;43.264;26.940;2022-07-23T06:29:32;99101.94;;;36.19;30.81
40872;BME280;26591;43.264;26.940;2022-07-23T06:31:58;99095.28;;;36.20;30.85
40872;BME280;26591;43.264;26.940;2022-07-23T06:34:24;99101.63;;;36.20;30.70
40872;BME280;26591;43.264;26.940;2022-07-23T06:36:50;99097.00;;;36.67;30.27
40872;BME280;26591;43.264;26.940;2022-07-23T06:39:15;99097.72;;;36.89;29.89
40872;BME280;26591;43.264;26.940;2022-07-23T06:41:41;99087.38;;;36.86;30.06
40872;BME280;26591;43.264;26.940;2022-07-23T06:44:07;99099.03;;;36.58;31.16
40872;BME280;26591;43.264;26.940;2022-07-23T06:46:32;99084.88;;;36.26;31.33
40872;BME280;26591;43.264;26.940;2022-07-23T06:48:58;99096.19;;;36.67;30.50
40872;BME280;26591;43.264;26.940;2022-07-23T06:51:23;99088.66;;;36.88;29.75
40872;BME280;26591;43.264;26.940;2022-07-23T06:53:49;99091.03;;;36.65;30.06
40872;BME280;26591;43.264;26.940;2022-07-23T06:56:14;99087.81;;;36.75;30.09
40872;BME280;26591;43.264;26.940;2022-07-23T06:58:40;99088.09;;;36.83;30.14
40872;BME280;26591;43.264;26.940;2022-07-23T07:01:05;99089.47;;;36.89;30.86
40872;BME280;26591;43.264;26.940;2022-07-23T07:03:31;99092.63;;;36.66;30.75
40872;BME280;26591;43.264;26.940;2022-07-23T07:05:56;99097.66;;;36.30;30.76
40872;BME280;26591;43.264;26.940;2022-07-23T07:08:23;99094.94;;;36.76;29.05
40872;BME280;26591;43.264;26.940;2022-07-23T07:10:49;99096.53;;;37.23;28.93
40872;BME280;26591;43.264;26.940;2022-07-23T07:13:14;99103.25;;;37.47;28.74
40872;BME280;26591;43.264;26.940;2022-07-23T07:15:40;99100.03;;;37.45;29.45
40872;BME280;26591;43.264;26.940;2022-07-23T07:18:05;99096.22;;;37.25;29.80
40872;BME280;26591;43.264;26.940;2022-07-23T07:20:31;99095.63;;;37.56;29.62
40872;BME280;26591;43.264;26.940;2022-07-23T07:22:56;99094.94;;;37.60;28.87
40872;BME280;26591;43.264;26.940;2022-07-23T07:25:22;99093.28;;;37.83;29.23
40872;BME280;26591;43.264;26.940;2022-07-23T07:27:48;99091.03;;;37.61;29.87
40872;BME280;26591;43.264;26.940;2022-07-23T07:30:13;99100.72;;;37.42;29.32
40872;BME280;26591;43.264;26.940;2022-07-23T07:32:39;99098.84;;;37.71;29.42
40872;BME280;26591;43.264;26.940;2022-07-23T07:35:05;99095.44;;;38.03;28.46
40872;BME280;26591;43.264;26.940;2022-07-23T07:37:31;99099.00;;;38.15;27.88
40872;BME280;26591;43.264;26.940;2022-07-23T07:39:56;99099.13;;;38.47;27.63
40872;BME280;26591;43.264;26.940;2022-07-23T07:42:25;99105.66;;;38.55;26.26
40872;BME280;26591;43.264;26.940;2022-07-23T07:44:52;99100.19;;;38.43;26.15
40872;BME280;26591;43.264;26.940;2022-07-23T07:47:17;99099.53;;;38.21;26.20
40872;BME280;26591;43.264;26.940;2022-07-23T07:49:43;99093.06;;;38.42;25.57
40872;BME280;26591;43.264;26.940;2022-07-23T07:52:10;99096.38;;;38.47;26.33
40872;BME280;26591;43.264;26.940;2022-07-23T07:54:36;99088.28;;;38.71;24.22
40872;BME280;26591;43.264;26.940;2022-07-23T07:57:01;99087.78;;;37.83;25.66
40872;BME280;26591;43.264;26.940;2022-07-23T07:59:27;99090.78;;;37.78;26.76
40872;BME280;26591;43.264;26.940;2022-07-23T08:01:53;99090.56;;;37.71;26.99
40872;BME280;26591;43.264;26.940;2022-07-23T08:04:18;99082.88;;;37.64;25.28
40872;BME280;26591;43.264;26.940;2022-07-23T08:06:44;99082.78;;;36.90;25.96
40872;BME280;26591;43.264;26.940;2022-07-23T08:09:09;99089.28;;;36.60;25.34
40872;BME280;26591;43.264;26.940;2022-07-23T08:11:35;99085.84;;;36.63;25.48
40872;BME280;26591;43.264;26.940;2022-07-23T08:14:01;99088.75;;;36.79;25.22
40872;BME280;26591;43.264;26.940;2022-07-23T08:16:26;99090.22;;;36.98;24.66
40872;BME280;26591;43.264;26.940;2022-07-23T08:18:52;99086.06;;;37.17;24.55
40872;BME280;26591;43.264;26.940;2022-07-23T08:21:18;99080.69;;;37.58;23.25
40872;BME280;26591;43.264;26.940;2022-07-23T08:23:44;99090.06;;;37.81;23.54
40872;BME280;26591;43.264;26.940;2022-07-23T08:26:09;99089.88;;;37.24;24.79
40872;BME280;26591;43.264;26.940;2022-07-23T08:28:35;99086.44;;;37.28;23.77
40872;BME280;26591;43.264;26.940;2022-07-23T08:31:00;99082.38;;;37.75;23.92
40872;BME280;26591;43.264;26.940;2022-07-23T08:33:26;99087.09;;;37.37;24.25
40872;BME280;26591;43.264;26.940;2022-07-23T08:35:52;99088.09;;;36.49;25.07
40872;BME280;26591;43.264;26.940;2022-07-23T08:38:20;99078.34;;;35.88;25.03
40872;BME280;26591;43.264;26.940;2022-07-23T08:40:52;99080.09;;;36.35;26.07
40872;BME280;26591;43.264;26.940;2022-07-23T08:43:23;99086.19;;;36.41;24.06
40872;BME280;26591;43.264;26.940;2022-07-23T08:45:51;99080.19;;;36.26;25.02
40872;BME280;26591;43.264;26.940;2022-07-23T08:48:19;99082.75;;;37.11;23.98
40872;BME280;26591;43.264;26.940;2022-07-23T08:50:46;99084.69;;;37.35;23.73
40872;BME280;26591;43.264;26.940;2022-07-23T08:53:14;99078.72;;;37.58;24.51
40872;BME280;26591;43.264;26.940;2022-07-23T08:55:43;99082.97;;;37.31;25.17
40872;BME280;26591;43.264;26.940;2022-07-23T08:58:09;99074.59;;;37.52;24.63
40872;BME280;26591;43.264;26.940;2022-07-23T09:00:35;99082.22;;;36.84;25.73
40872;BME280;26591;43.264;26.940;2022-07-23T09:03:01;99074.91;;;35.91;25.65
40872;BME280;26591;43.264;26.940;2022-07-23T09:05:26;99077.47;;;36.72;25.41
40872;BME280;26591;43.264;26.940;2022-07-23T09:08:08;99076.88;;;36.67;25.90
40872;BME280;26591;43.264;26.940;2022-07-23T09:10:43;99081.13;;;37.10;25.33
40872;BME280;26591;43.264;26.940;2022-07-23T09:13:45;99077.69;;;37.50;24.87
40872;BME280;26591;43.264;26.940;2022-07-23T09:16:13;99077.38;;;37.52;24.48
40872;BME280;26591;43.264;26.940;2022-07-23T09:18:54;99075.38;;;37.15;25.04
40872;BME280;26591;43.264;26.940;2022-07-23T09:21:31;99076.41;;;36.98;25.24
40872;BME280;26591;43.264;26.940;2022-07-23T09:24:02;99069.69;;;36.19;26.25
40872;BME280;26591;43.264;26.940;2022-07-23T09:26:34;99070.25;;;36.13;25.28
40872;BME280;26591;43.264;26.940;2022-07-23T09:31:32;99070.31;;;36.25;25.94
40872;BME280;26591;43.264;26.940;2022-07-23T09:36:35;99072.59;;;36.90;25.31
40872;BME280;26591;43.264;26.940;2022-07-23T09:39:00;99061.25;;;37.04;25.00
40872;BME280;26591;43.264;26.940;2022-07-23T09:41:34;99065.50;;;37.51;24.64
40872;BME280;26591;43.264;26.940;2022-07-23T09:44:24;99062.56;;;37.97;24.47
40872;BME280;26591;43.264;26.940;2022-07-23T09:46:57;99051.03;;;38.08;24.63
40872;BME280;26591;43.264;26.940;2022-07-23T09:49:23;99053.00;;;38.07;24.56
40872;BME280;26591;43.264;26.940;2022-07-23T09:51:55;99055.69;;;37.91;24.39
40872;BME280;26591;43.264;26.940;2022-07-23T09:54:27;99046.25;;;38.21;24.43
40872;BME280;26591;43.264;26.940;2022-07-23T09:56:55;99050.09;;;37.38;25.27
40872;BME280;26591;43.264;26.940;2022-07-23T09:59:27;99054.97;;;37.94;25.12
40872;BME280;26591;43.264;26.940;2022-07-23T10:01:55;99034.66;;;38.15;24.09
40872;BME280;26591;43.264;26.940;2022-07-23T10:04:23;99032.94;;;38.10;24.45
40872;BME280;26591;43.264;26.940;2022-07-23T10:06:54;99038.78;;;38.50;24.27
40872;BME280;26591;43.264;26.940;2022-07-23T10:09:25;99036.38;;;38.80;23.84
40872;BME280;26591;43.264;26.940;2022-07-23T10:11:55;99037.72;;;38.70;24.16
40872;BME280;26591;43.264;26.940;2022-07-23T10:14:25;99034.31;;;38.61;24.09
40872;BME280;26591;43.264;26.940;2022-07-23T10:16:52;99030.69;;;38.28;24.41
40872;BME280;26591;43.264;26.940;2022-07-23T10:19:18;99026.84;;;38.33;24.72
40872;BME280;26591;43.264;26.940;2022-07-23T10:21:50;99022.78;;;38.14;24.95
40872;BME280;26591;43.264;26.940;2022-07-23T10:30:07;99015.41;;;38.19;24.69
40872;BME280;26591;43.264;26.940;2022-07-23T10:35:42;99016.75;;;38.69;23.85
40872;BME280;26591;43.264;26.940;2022-07-23T10:41:01;99008.19;;;37.73;24.76
40872;BME280;26591;43.264;26.940;2022-07-23T10:43:27;99005.59;;;38.05;24.54
40872;BME280;26591;43.264;26.940;2022-07-23T10:45:54;98995.41;;;37.15;25.99
40872;BME280;26591;43.264;26.940;2022-07-23T10:48:22;98984.53;;;37.60;25.05
40872;BME280;26591;43.264;26.940;2022-07-23T10:51:12;98987.03;;;37.77;25.14
40872;BME280;26591;43.264;26.940;2022-07-23T10:59:05;98977.09;;;37.89;24.56
40872;BME280;26591;43.264;26.940;2022-07-23T11:01:34;98979.75;;;38.42;24.24
40872;BME280;26591;43.264;26.940;2022-07-23T11:04:03;98979.94;;;38.65;24.11
40872;BME280;26591;43.264;26.940;2022-07-23T11:11:50;98966.72;;;39.42;23.39
40872;BME280;26591;43.264;26.940;2022-07-23T11:14:15;98961.69;;;39.48;23.32
40872;BME280;26591;43.264;26.940;2022-07-23T11:17:00;98963.44;;;39.56;23.62
40872;BME280;26591;43.264;26.940;2022-07-23T11:19:26;98967.84;;;39.77;23.17
40872;BME280;26591;43.264;26.940;2022-07-23T11:21:52;98966.25;;;39.04;24.23
40872;BME280;26591;43.264;26.940;2022-07-23T11:24:18;98964.91;;;38.98;24.21
40872;BME280;26591;43.264;26.940;2022-07-23T11:26:45;98968.22;;;38.56;24.43
40872;BME280;26591;43.264;26.940;2022-07-23T11:31:56;98961.13;;;37.82;25.01
40872;BME280;26591;43.264;26.940;2022-07-23T11:34:33;98958.56;;;37.36;25.72
40872;BME280;26591;43.264;26.940;2022-07-23T11:37:00;98953.44;;;37.22;25.50
40872;BME280;26591;43.264;26.940;2022-07-23T11:39:28;98951.03;;;37.20;25.44
40872;BME280;26591;43.264;26.940;2022-07-23T11:41:55;98954.03;;;37.15;25.79
40872;BME280;26591;43.264;26.940;2022-07-23T11:44:36;98952.00;;;37.53;25.34
40872;BME280;26591;43.264;26.940;2022-07-23T11:47:06;98956.63;;;37.90;25.09
40872;BME280;26591;43.264;26.940;2022-07-23T11:49:32;98953.38;;;38.16;24.28
40872;BME280;26591;43.264;26.940;2022-07-23T11:52:12;98946.34;;;38.19;24.02
40872;BME280;26591;43.264;26.940;2022-07-23T11:54:59;98955.41;;;38.19;23.85
40872;BME280;26591;43.264;26.940;2022-07-23T11:57:33;98958.41;;;37.69;24.50
40872;BME280;26591;43.264;26.940;2022-07-23T12:00:11;98941.25;;;36.61;25.89
40872;BME280;26591;43.264;26.940;2022-07-23T12:02:43;98937.13;;;36.92;25.43
40872;BME280;26591;43.264;26.940;2022-07-23T12:05:14;98930.44;;;36.56;26.11
40872;BME280;26591;43.264;26.940;2022-07-23T12:07:42;98933.22;;;37.05;25.62
40872;BME280;26591;43.264;26.940;2022-07-23T12:10:39;98921.44;;;37.33;25.43
40872;BME280;26591;43.264;26.940;2022-07-23T12:13:14;98937.06;;;37.82;24.69
40872;BME280;26591;43.264;26.940;2022-07-23T12:15:48;98927.88;;;38.07;25.55
40872;BME280;26591;43.264;26.940;2022-07-23T12:18:20;98936.72;;;37.84;25.11
40872;BME280;26591;43.264;26.940;2022-07-23T12:20:49;98921.69;;;37.69;25.07
40872;BME280;26591;43.264;26.940;2022-07-23T12:23:17;98922.81;;;38.09;25.09
40872;BME280;26591;43.264;26.940;2022-07-23T12:25:45;98926.31;;;38.54;24.53
40872;BME280;26591;43.264;26.940;2022-07-23T12:28:16;98922.25;;;38.03;24.47
40872;BME280;26591;43.264;26.940;2022-07-23T12:30:44;98925.47;;;38.05;25.15
40872;BME280;26591;43.264;26.940;2022-07-23T12:33:13;98916.72;;;38.47;24.78
40872;BME280;26591;43.264;26.940;2022-07-23T12:35:43;98917.75;;;38.91;23.75
40872;BME280;26591;43.264;26.940;2022-07-23T12:38:12;98912.03;;;39.19;24.32
40872;BME280;26591;43.264;26.940;2022-07-23T12:40:43;98907.84;;;38.10;24.93
40872;BME280;26591;43.264;26.940;2022-07-23T12:43:18;98909.88;;;37.68;24.85
40872;BME280;26591;43.264;26.940;2022-07-23T12:48:26;98912.84;;;38.84;24.41
40872;BME280;26591;43.264;26.940;2022-07-23T12:50:54;98914.66;;;38.44;24.01
40872;BME280;26591;43.264;26.940;2022-07-23T12:53:38;98908.56;;;38.71;24.05
40872;BME280;26591;43.264;26.940;2022-07-23T12:56:18;98901.78;;;38.20;24.92
40872;BME280;26591;43.264;26.940;2022-07-23T12:58:50;98898.34;;;38.55;24.15
40872;BME280;26591;43.264;26.940;2022-07-23T13:06:37;98895.94;;;38.38;24.62
40872;BME280;26591;43.264;26.940;2022-07-23T13:09:06;98896.91;;;37.85;25.00
40872;BME280;26591;43.264;26.940;2022-07-23T13:11:33;98890.63;;;37.44;25.17
40872;BME280;26591;43.264;26.940;2022-07-23T13:13:59;98898.00;;;37.39;25.40
40872;BME280;26591;43.264;26.940;2022-07-23T13:16:30;98887.22;;;37.22;25.59
40872;BME280;26591;43.264;26.940;2022-07-23T13:18:56;98886.44;;;37.09;25.58
40872;BME280;26591;43.264;26.940;2022-07-23T13:21:22;98883.81;;;37.00;25.87
40872;BME280;26591;43.264;26.940;2022-07-23T13:23:48;98885.59;;;37.33;25.42
40872;BME280;26591;43.264;26.940;2022-07-23T13:26:14;98875.22;;;37.71;25.24
40872;BME280;26591;43.264;26.940;2022-07-23T13:28:40;98876.19;;;37.91;24.85